createdAt,value
2022-10-25T00:01:46.039Z,16.80
2022-10-25T00:04:14.487Z,16.33
2022-10-25T00:06:42.372Z,15.68
2022-10-25T00:09:09.727Z,16.67
2022-10-25T00:11:37.107Z,17.98
2022-10-25T00:14:07.332Z,16.13
2022-10-25T00:16:37.358Z,17.38
2022-10-25T00:19:07.825Z,17.70
2022-10-25T00:21:35.037Z,17.27
2022-10-25T00:24:02.303Z,16.58
2022-10-25T00:26:29.560Z,17.05
2022-10-25T00:28:57.314Z,16.67
2022-10-25T00:31:24.998Z,16.95
2022-10-25T00:33:52.287Z,16.63
2022-10-25T00:36:22.697Z,16.40
2022-10-25T00:38:50.566Z,17.48
2022-10-25T00:41:21.494Z,17.13
2022-10-25T00:43:54.448Z,16.52
2022-10-25T00:46:26.961Z,17.25
2022-10-25T00:49:19.009Z,16.98
2022-10-25T00:51:48.552Z,16.52
2022-10-25T00:56:57.722Z,16.15
2022-10-25T00:59:27.775Z,16.90
2022-10-25T01:01:56.098Z,16.33
2022-10-25T01:04:28.964Z,16.90
2022-10-25T01:06:56.646Z,16.50
2022-10-25T01:09:27.007Z,16.23
2022-10-25T01:11:54.278Z,17.27
2022-10-25T01:14:27.041Z,16.55
2022-10-25T01:17:01.620Z,17.17
2022-10-25T01:19:46.974Z,15.98
2022-10-25T01:23:11.709Z,17.20
2022-10-25T01:26:15.029Z,17.52
2022-10-25T01:28:51.226Z,17.23
2022-10-25T01:31:37.139Z,17.42
2022-10-25T01:34:39.606Z,17.88
2022-10-25T01:37:27.851Z,17.30
2022-10-25T01:40:07.023Z,17.63
2022-10-25T01:42:42.921Z,16.45
2022-10-25T01:47:52.853Z,16.45
2022-10-25T01:50:28.240Z,17.60
2022-10-25T01:52:55.704Z,18.42
2022-10-25T01:55:27.860Z,20.65
2022-10-25T01:58:08.085Z,23.85
2022-10-25T02:00:46.130Z,22.13
2022-10-25T02:03:33.072Z,19.90
2022-10-25T02:06:09.104Z,18.70
2022-10-25T02:11:17.475Z,18.45
2022-10-25T02:13:53.847Z,19.02
2022-10-25T02:16:25.889Z,18.58
2022-10-25T02:18:59.102Z,18.48
2022-10-25T02:21:28.382Z,17.90
2022-10-25T02:23:57.958Z,18.58
2022-10-25T02:26:28.440Z,17.80
2022-10-25T02:28:57.520Z,18.25
2022-10-25T02:31:25.862Z,19.08
2022-10-25T02:33:56.436Z,18.08
2022-10-25T02:36:24.669Z,18.58
2022-10-25T02:38:54.939Z,17.85
2022-10-25T02:41:25.055Z,16.20
2022-10-25T02:43:52.441Z,17.08
2022-10-25T02:46:26.447Z,16.67
2022-10-25T02:48:54.057Z,17.23
2022-10-25T02:51:25.374Z,17.85
2022-10-25T02:53:56.813Z,17.98
2022-10-25T02:56:24.356Z,16.27
2022-10-25T02:58:54.721Z,16.48
2022-10-25T03:01:29.565Z,16.48
2022-10-25T03:03:57.074Z,17.20
2022-10-25T03:06:24.326Z,16.42
2022-10-25T03:08:51.605Z,16.33
2022-10-25T03:11:18.925Z,15.95
2022-10-25T03:13:46.189Z,15.55
2022-10-25T03:16:13.427Z,16.13
2022-10-25T03:18:42.787Z,16.50
2022-10-25T03:21:10.279Z,15.80
2022-10-25T03:23:37.538Z,17.17
2022-10-25T03:26:07.949Z,16.23
2022-10-25T03:28:38.492Z,16.75
2022-10-25T03:31:14.888Z,16.40
2022-10-25T03:33:45.684Z,16.15
2022-10-25T03:36:13.110Z,15.75
2022-10-25T03:38:46.935Z,16.80
2022-10-25T03:41:14.144Z,16.25
2022-10-25T03:43:41.359Z,16.95
2022-10-25T03:46:08.596Z,16.58
2022-10-25T03:48:35.876Z,16.60
2022-10-25T03:51:15.164Z,16.45
2022-10-25T03:53:56.177Z,16.52
2022-10-25T03:56:23.696Z,15.20
2022-10-25T03:58:50.956Z,15.45
2022-10-25T04:01:18.388Z,16.02
2022-10-25T04:03:45.750Z,16.65
2022-10-25T04:06:15.495Z,16.40
2022-10-25T04:08:42.729Z,16.35
2022-10-25T04:11:09.952Z,16.38
2022-10-25T04:13:37.183Z,15.70
2022-10-25T04:16:08.570Z,16.50
2022-10-25T04:18:36.379Z,15.98
2022-10-25T04:21:03.960Z,16.13
2022-10-25T04:23:36.412Z,16.52
2022-10-25T04:26:03.782Z,16.60
2022-10-25T04:28:32.474Z,16.17
2022-10-25T04:30:59.776Z,16.15
2022-10-25T04:33:27.040Z,16.27
2022-10-25T04:35:56.378Z,15.93
2022-10-25T04:38:26.468Z,15.82
2022-10-25T04:40:57.955Z,16.05
2022-10-25T04:43:27.024Z,15.68
2022-10-25T04:45:54.964Z,15.90
2022-10-25T04:48:23.385Z,15.52
2022-10-25T04:50:51.994Z,14.50
2022-10-25T04:53:19.316Z,14.05
2022-10-25T04:56:46.825Z,14.20
2022-10-25T04:58:49.976Z,14.57
2022-10-25T05:01:18.275Z,15.80
2022-10-25T05:03:46.288Z,14.93
2022-10-25T05:06:19.185Z,14.07
2022-10-25T05:08:49.116Z,14.48
2022-10-25T05:11:22.803Z,13.68
2022-10-25T05:13:50.246Z,10.40
2022-10-25T05:16:23.686Z,9.25
2022-10-25T05:18:57.968Z,10.00
2022-10-25T05:22:17.617Z,9.90
2022-10-25T05:24:35.213Z,8.50
2022-10-25T05:27:04.817Z,8.80
2022-10-25T05:29:32.134Z,9.18
2022-10-25T05:32:17.068Z,9.07
2022-10-25T05:34:45.884Z,9.05
2022-10-25T05:37:13.240Z,8.77
2022-10-25T05:39:43.153Z,8.52
2022-10-25T05:42:11.549Z,9.15
2022-10-25T05:44:38.754Z,8.90
2022-10-25T05:47:08.389Z,8.65
2022-10-25T05:49:39.623Z,9.02
2022-10-25T05:52:07.254Z,9.75
2022-10-25T05:54:34.697Z,8.25
2022-10-25T05:57:08.037Z,8.85
2022-10-25T05:59:35.284Z,8.68
2022-10-25T06:02:02.605Z,8.70
2022-10-25T06:04:30.206Z,8.38
2022-10-25T06:06:58.065Z,8.05
2022-10-25T06:09:25.387Z,8.48
2022-10-25T06:11:52.636Z,8.13
2022-10-25T06:14:19.988Z,8.00
2022-10-25T06:16:47.219Z,7.47
2022-10-25T06:19:16.984Z,7.50
2022-10-25T06:21:44.540Z,6.85
2022-10-25T06:24:11.961Z,7.30
2022-10-25T06:26:42.304Z,7.15
2022-10-25T06:29:09.899Z,7.00
2022-10-25T06:31:46.886Z,6.78
2022-10-25T06:34:14.183Z,6.25
2022-10-25T06:36:41.469Z,6.93
2022-10-25T06:39:08.685Z,6.45
2022-10-25T06:41:37.081Z,5.47
2022-10-25T06:44:06.602Z,5.85
2022-10-25T06:46:57.914Z,5.68
2022-10-25T06:49:24.714Z,4.78
2022-10-25T06:51:54.580Z,5.43
2022-10-25T06:54:22.090Z,4.82
2022-10-25T06:56:49.319Z,5.03
2022-10-25T06:59:17.107Z,4.40
2022-10-25T07:01:44.483Z,4.85
2022-10-25T07:04:12.101Z,4.60
2022-10-25T07:06:39.532Z,4.80
2022-10-25T07:09:09.419Z,4.85
2022-10-25T07:11:36.772Z,4.18
2022-10-25T07:14:04.680Z,3.90
2022-10-25T07:16:32.689Z,4.40
2022-10-25T07:19:04.110Z,4.10
2022-10-25T07:21:33.145Z,4.43
2022-10-25T07:24:00.795Z,4.30
2022-10-25T07:26:34.088Z,4.30
2022-10-25T07:29:03.338Z,5.00
2022-10-25T07:31:36.538Z,4.70
2022-10-25T07:34:05.434Z,4.70
2022-10-25T07:36:33.730Z,4.75
2022-10-25T07:39:01.085Z,4.95
2022-10-25T07:41:28.580Z,5.10
2022-10-25T07:43:55.992Z,5.40
2022-10-25T07:46:23.838Z,4.50
2022-10-25T07:48:52.552Z,4.35
2022-10-25T07:51:19.925Z,3.38
2022-10-25T07:53:47.560Z,3.60
2022-10-25T07:56:20.564Z,4.05
2022-10-25T08:01:28.047Z,3.13
2022-10-25T08:03:56.437Z,5.20
2022-10-25T08:06:26.567Z,3.40
2022-10-25T08:08:54.364Z,3.13
2022-10-25T08:11:21.576Z,3.65
2022-10-25T08:13:50.713Z,3.47
2022-10-25T08:16:20.460Z,3.40
2022-10-25T08:18:47.951Z,3.67
2022-10-25T08:21:15.262Z,4.15
2022-10-25T08:23:42.756Z,4.25
2022-10-25T08:26:09.993Z,4.57
2022-10-25T08:28:37.258Z,4.43
2022-10-25T08:31:04.751Z,4.72
2022-10-25T08:33:33.019Z,5.10
2022-10-25T08:36:02.037Z,5.68
2022-10-25T08:38:29.817Z,6.70
2022-10-25T08:41:14.819Z,6.93
2022-10-25T08:46:43.439Z,5.60
2022-10-25T08:49:21.782Z,5.60
2022-10-25T08:51:50.732Z,5.03
2022-10-25T08:54:32.394Z,5.63
2022-10-25T08:57:14.934Z,5.90
2022-10-25T08:59:52.405Z,6.03
2022-10-25T09:02:22.644Z,6.32
2022-10-25T09:04:50.133Z,7.25
2022-10-25T09:07:51.831Z,7.53
2022-10-25T09:10:33.710Z,7.00
2022-10-25T09:13:26.277Z,6.38
2022-10-25T09:16:03.525Z,6.40
2022-10-25T09:18:52.851Z,6.80
2022-10-25T09:21:45.756Z,6.55
2022-10-25T09:24:28.061Z,6.85
2022-10-25T09:27:24.051Z,6.88
2022-10-25T09:30:08.756Z,6.80
2022-10-25T09:32:43.434Z,7.15
2022-10-25T09:35:17.232Z,5.25
2022-10-25T09:38:12.439Z,4.85
2022-10-25T09:41:16.456Z,4.45
2022-10-25T09:44:06.903Z,3.50
2022-10-25T09:46:48.864Z,4.18
2022-10-25T09:49:40.621Z,4.00
2022-10-25T09:52:19.459Z,4.18
2022-10-25T09:54:56.496Z,3.97
2022-10-25T09:57:23.836Z,3.78
2022-10-25T09:59:54.301Z,5.15
2022-10-25T10:02:27.232Z,6.05
2022-10-25T10:04:56.860Z,6.18
2022-10-25T10:07:33.041Z,6.53
2022-10-25T10:10:04.039Z,6.53
2022-10-25T10:12:35.733Z,7.10
2022-10-25T10:15:19.167Z,7.45
2022-10-25T10:17:48.970Z,7.10
2022-10-25T10:20:18.338Z,7.72
2022-10-25T10:22:51.654Z,8.00
2022-10-25T10:25:28.070Z,6.70
2022-10-25T10:27:57.951Z,6.32
2022-10-25T10:30:30.845Z,6.75
2022-10-25T10:33:01.465Z,6.30
2022-10-25T10:35:34.722Z,6.72
2022-10-25T10:38:28.679Z,7.70
2022-10-25T10:41:14.491Z,7.38
2022-10-25T10:43:42.076Z,7.40
2022-10-25T10:46:16.005Z,6.82
2022-10-25T10:48:52.521Z,7.78
2022-10-25T10:51:43.710Z,7.45
2022-10-25T10:54:23.202Z,8.25
2022-10-25T10:57:05.507Z,7.65
2022-10-25T10:59:52.997Z,8.27
2022-10-25T11:02:40.743Z,7.82
2022-10-25T11:05:31.457Z,8.02
2022-10-25T11:08:01.936Z,7.95
2022-10-25T11:10:30.469Z,7.75
2022-10-25T11:13:18.726Z,8.80
2022-10-25T11:16:04.223Z,7.25
2022-10-25T11:18:34.486Z,8.85
2022-10-25T11:21:40.211Z,7.93
2022-10-25T11:24:34.708Z,7.88
2022-10-25T11:27:10.303Z,7.00
2022-10-25T11:30:12.310Z,7.82
2022-10-25T11:32:51.331Z,7.43
2022-10-25T11:35:43.507Z,6.70
2022-10-25T11:38:28.866Z,7.45
2022-10-25T11:41:14.740Z,7.25
2022-10-25T11:44:06.331Z,6.72
2022-10-25T11:46:44.119Z,7.55
2022-10-25T11:49:37.186Z,7.57
2022-10-25T11:52:23.742Z,8.38
2022-10-25T11:55:11.109Z,6.97
2022-10-25T11:58:07.225Z,7.63
2022-10-25T12:00:49.382Z,7.32
2022-10-25T12:03:45.944Z,6.80
2022-10-25T12:06:43.771Z,6.80
2022-10-25T12:09:25.880Z,6.70
2022-10-25T12:12:00.503Z,6.47
2022-10-25T12:14:36.267Z,5.97
2022-10-25T12:17:07.281Z,7.75
2022-10-25T12:19:46.961Z,6.72
2022-10-25T12:22:21.109Z,7.07
2022-10-25T12:24:56.250Z,7.28
2022-10-25T12:27:25.105Z,7.20
2022-10-25T12:30:15.325Z,8.13
2022-10-25T12:32:58.871Z,7.07
2022-10-25T12:35:32.043Z,7.88
2022-10-25T12:38:05.268Z,7.63
2022-10-25T12:40:41.590Z,7.45
2022-10-25T12:43:41.120Z,8.35
2022-10-25T12:46:11.441Z,7.13
2022-10-25T12:48:58.076Z,7.90
2022-10-25T12:51:34.380Z,7.25
2022-10-25T12:54:23.088Z,8.23
2022-10-25T12:57:20.709Z,8.43
2022-10-25T13:00:14.191Z,8.60
2022-10-25T13:03:02.517Z,7.47
2022-10-25T13:06:03.567Z,7.20
2022-10-25T13:08:31.991Z,6.90
2022-10-25T13:11:07.162Z,6.57
2022-10-25T13:13:51.745Z,7.07
2022-10-25T13:16:27.719Z,7.35
2022-10-25T13:19:53.620Z,6.50
2022-10-25T13:22:27.952Z,6.63
2022-10-25T13:24:56.193Z,5.97
2022-10-25T13:27:26.277Z,6.40
2022-10-25T13:30:02.921Z,7.55
2022-10-25T13:32:33.502Z,6.38
2022-10-25T13:35:02.711Z,6.18
2022-10-25T13:37:33.419Z,7.70
2022-10-25T13:40:07.882Z,8.23
2022-10-25T13:42:38.657Z,6.78
2022-10-25T13:45:07.648Z,7.30
2022-10-25T13:47:41.567Z,5.88
2022-10-25T13:50:18.066Z,6.25
2022-10-25T13:53:02.818Z,6.75
2022-10-25T13:55:39.503Z,7.60
2022-10-25T13:58:31.603Z,6.90
2022-10-25T14:01:18.263Z,7.38
2022-10-25T14:04:05.966Z,7.40
2022-10-25T14:06:36.591Z,7.38
2022-10-25T14:09:42.815Z,6.63
2022-10-25T14:12:22.932Z,8.00
2022-10-25T14:15:04.281Z,7.50
2022-10-25T14:17:36.610Z,8.40
2022-10-25T14:20:08.387Z,8.30
2022-10-25T14:22:43.771Z,7.93
2022-10-25T14:25:24.200Z,7.43
2022-10-25T14:28:39.672Z,7.40
2022-10-25T14:31:07.959Z,8.73
2022-10-25T14:33:56.359Z,8.38
2022-10-25T14:36:41.644Z,8.40
2022-10-25T14:39:17.750Z,6.68
2022-10-25T14:41:56.419Z,8.32
2022-10-25T14:44:47.449Z,7.82
2022-10-25T14:47:36.058Z,8.20
2022-10-25T14:50:03.506Z,7.75
2022-10-25T14:52:31.617Z,7.38
2022-10-25T14:55:04.082Z,6.60
2022-10-25T14:57:33.325Z,8.63
2022-10-25T15:00:03.819Z,8.30
2022-10-25T15:02:39.894Z,8.10
2022-10-25T15:05:07.944Z,6.03
2022-10-25T15:07:46.947Z,5.80
2022-10-25T15:10:43.121Z,5.47
2022-10-25T15:13:20.780Z,5.25
2022-10-25T15:15:50.619Z,5.55
2022-10-25T15:18:26.759Z,5.45
2022-10-25T15:21:24.975Z,5.28
2022-10-25T15:24:13.630Z,5.93
2022-10-25T15:26:54.787Z,5.93
2022-10-25T15:29:55.440Z,4.95
2022-10-25T15:32:27.525Z,5.32
2022-10-25T15:35:02.952Z,4.95
2022-10-25T15:37:30.617Z,5.10
2022-10-25T15:39:58.110Z,4.32
2022-10-25T15:42:26.581Z,4.95
2022-10-25T15:44:53.873Z,4.38
2022-10-25T15:47:33.445Z,4.93
2022-10-25T15:50:03.813Z,4.63
2022-10-25T15:52:31.200Z,4.60
2022-10-25T15:54:58.613Z,4.53
2022-10-25T15:57:27.267Z,4.05
2022-10-25T15:59:57.347Z,5.28
2022-10-25T16:02:28.313Z,4.93
2022-10-25T16:04:55.646Z,4.25
2022-10-25T16:07:23.175Z,3.95
2022-10-25T16:09:50.378Z,4.03
2022-10-25T16:12:21.332Z,3.70
2022-10-25T16:14:57.092Z,3.80
2022-10-25T16:19:52.925Z,4.20
2022-10-25T16:22:20.205Z,3.67
2022-10-25T16:24:50.543Z,4.07
2022-10-25T16:27:18.736Z,4.38
2022-10-25T16:29:47.147Z,5.63
2022-10-25T16:32:14.510Z,7.97
2022-10-25T16:34:45.905Z,7.35
2022-10-25T16:37:13.093Z,7.28
2022-10-25T16:39:40.334Z,6.57
2022-10-25T16:42:26.433Z,6.03
2022-10-25T16:44:53.865Z,6.00
2022-10-25T16:47:23.935Z,5.53
2022-10-25T16:49:51.361Z,5.57
2022-10-25T16:52:21.840Z,5.68
2022-10-25T16:54:49.054Z,5.53
2022-10-25T16:57:16.439Z,4.72
2022-10-25T16:59:43.759Z,5.40
2022-10-25T17:02:22.156Z,5.68
2022-10-25T17:04:50.187Z,4.90
2022-10-25T17:07:18.150Z,4.40
2022-10-25T17:09:45.661Z,5.10
2022-10-25T17:12:15.374Z,5.20
2022-10-25T17:14:43.186Z,6.22
2022-10-25T17:17:10.807Z,5.45
2022-10-25T17:19:41.695Z,6.68
2022-10-25T17:22:09.012Z,6.95
2022-10-25T17:24:38.905Z,6.80
2022-10-25T17:27:07.297Z,6.28
2022-10-25T17:29:34.664Z,6.60
2022-10-25T17:32:04.114Z,6.22
2022-10-25T17:34:33.918Z,5.30
2022-10-25T17:37:02.276Z,5.35
2022-10-25T17:39:29.952Z,5.03
2022-10-25T17:41:57.471Z,4.95
2022-10-25T17:44:27.269Z,5.07
2022-10-25T17:49:37.994Z,5.03
2022-10-25T17:52:07.145Z,5.13
2022-10-25T17:54:40.503Z,5.55
2022-10-25T17:57:07.937Z,5.00
2022-10-25T17:59:35.838Z,5.28
2022-10-25T18:02:03.309Z,6.20
2022-10-25T18:04:41.926Z,4.75
2022-10-25T18:07:17.989Z,5.03
2022-10-25T18:09:59.782Z,5.97
2022-10-25T18:12:29.194Z,5.95
2022-10-25T18:14:56.611Z,6.70
2022-10-25T18:17:23.948Z,5.15
2022-10-25T18:19:51.159Z,5.75
2022-10-25T18:22:21.142Z,5.13
2022-10-25T18:24:48.541Z,5.93
2022-10-25T18:27:16.872Z,5.30
2022-10-25T18:30:07.626Z,5.70
2022-10-25T18:32:36.473Z,5.20
2022-10-25T18:35:03.968Z,5.70
2022-10-25T18:37:31.327Z,5.88
2022-10-25T18:40:10.177Z,6.05
2022-10-25T18:42:38.246Z,5.97
2022-10-25T18:45:07.612Z,5.45
2022-10-25T18:47:35.954Z,5.28
2022-10-25T18:50:04.743Z,6.00
2022-10-25T18:52:32.224Z,5.85
2022-10-25T18:54:59.479Z,6.20
2022-10-25T18:57:29.770Z,5.90
2022-10-25T18:59:57.124Z,5.90
2022-10-25T19:02:24.520Z,6.05
2022-10-25T19:04:51.819Z,6.10
2022-10-25T19:07:19.149Z,6.30
2022-10-25T19:09:46.714Z,5.63
2022-10-25T19:12:13.977Z,6.20
2022-10-25T19:14:45.639Z,6.25
2022-10-25T19:17:14.572Z,5.88
2022-10-25T19:19:46.628Z,5.63
2022-10-25T19:22:17.076Z,5.57
2022-10-25T19:24:49.856Z,7.97
2022-10-25T19:27:17.315Z,6.72
2022-10-25T19:29:44.566Z,6.57
2022-10-25T19:32:12.339Z,6.45
2022-10-25T19:37:19.080Z,7.28
2022-10-25T19:39:46.411Z,7.10
2022-10-25T19:42:18.464Z,8.18
2022-10-25T19:44:49.614Z,8.57
2022-10-25T19:47:19.555Z,8.60
2022-10-25T19:49:47.050Z,8.68
2022-10-25T19:52:23.078Z,9.40
2022-10-25T19:54:50.700Z,8.85
2022-10-25T19:57:20.593Z,9.05
2022-10-25T19:59:48.009Z,9.18
2022-10-25T20:02:17.904Z,9.38
2022-10-25T20:04:50.722Z,7.93
2022-10-25T20:07:26.324Z,8.88
2022-10-25T20:10:18.912Z,8.65
2022-10-25T20:12:58.260Z,9.38
2022-10-25T20:15:28.034Z,9.23
2022-10-25T20:17:59.006Z,8.52
2022-10-25T20:20:38.988Z,8.80
2022-10-25T20:23:08.956Z,9.27
2022-10-25T20:25:54.749Z,8.32
2022-10-25T20:28:38.211Z,9.50
2022-10-25T20:31:08.203Z,8.80
2022-10-25T20:33:38.797Z,9.15
2022-10-25T20:36:10.887Z,8.82
2022-10-25T20:38:38.750Z,8.07
2022-10-25T20:41:24.907Z,7.63
2022-10-25T20:44:11.363Z,8.98
2022-10-25T20:46:57.575Z,9.00
2022-10-25T20:49:26.844Z,8.95
2022-10-25T20:51:57.803Z,9.70
2022-10-25T20:58:51.925Z,9.68
2022-10-25T21:01:26.561Z,9.90
2022-10-25T21:03:54.260Z,9.30
2022-10-25T21:06:25.524Z,10.30
2022-10-25T21:08:53.122Z,9.40
2022-10-25T21:11:20.527Z,9.85
2022-10-25T21:13:50.175Z,10.25
2022-10-25T21:16:20.388Z,9.35
2022-10-25T21:18:48.103Z,9.32
2022-10-25T21:21:20.040Z,9.32
2022-10-25T21:24:17.007Z,10.10
2022-10-25T21:30:11.232Z,9.85
2022-10-25T21:32:38.499Z,9.15
2022-10-25T21:35:05.921Z,9.13
2022-10-25T21:37:46.840Z,9.45
2022-10-25T21:40:19.617Z,10.98
2022-10-25T21:42:49.164Z,10.00
2022-10-25T21:45:18.612Z,10.55
2022-10-25T21:47:48.140Z,9.82
2022-10-25T21:50:17.864Z,10.13
2022-10-25T21:52:45.076Z,10.85
2022-10-25T21:55:16.531Z,10.77
2022-10-25T21:57:48.228Z,11.90
2022-10-25T22:00:19.220Z,12.02
2022-10-25T22:02:46.483Z,12.63
2022-10-25T22:05:13.792Z,11.75
2022-10-25T22:07:41.012Z,11.63
2022-10-25T22:10:08.630Z,12.85
2022-10-25T22:12:38.519Z,12.20
2022-10-25T22:15:06.365Z,13.02
2022-10-25T22:17:38.321Z,12.70
2022-10-25T22:20:09.309Z,13.57
2022-10-25T22:22:36.567Z,12.48
2022-10-25T22:25:04.059Z,12.38
2022-10-25T22:27:31.623Z,13.40
2022-10-25T22:29:59.142Z,12.73
2022-10-25T22:32:26.401Z,12.40
2022-10-25T22:34:59.386Z,13.40
2022-10-25T22:37:29.133Z,12.35
2022-10-25T22:39:58.643Z,12.85
2022-10-25T22:42:28.096Z,12.05
2022-10-25T22:44:56.336Z,12.23
2022-10-25T22:47:24.750Z,12.38
2022-10-25T22:49:52.009Z,11.70
2022-10-25T22:52:25.931Z,11.55
2022-10-25T22:54:53.905Z,11.75
2022-10-25T22:57:21.403Z,11.95
2022-10-25T22:59:48.680Z,12.10
2022-10-25T23:02:15.927Z,12.57
2022-10-25T23:05:00.407Z,12.15
2022-10-25T23:07:30.466Z,11.82
2022-10-25T23:09:59.936Z,12.70
2022-10-25T23:12:27.190Z,12.27
2022-10-25T23:14:54.508Z,12.45
2022-10-25T23:17:21.746Z,12.32
2022-10-25T23:19:49.200Z,13.00
2022-10-25T23:22:16.521Z,13.02
2022-10-25T23:24:43.866Z,11.90
2022-10-25T23:27:11.056Z,12.25
2022-10-25T23:29:48.396Z,13.00
2022-10-25T23:32:16.812Z,12.98
2022-10-25T23:34:44.069Z,12.02
2022-10-25T23:37:11.391Z,12.40
2022-10-25T23:39:39.467Z,12.32
2022-10-25T23:42:06.757Z,11.93
2022-10-25T23:44:33.963Z,12.30
2022-10-25T23:47:01.680Z,11.40
2022-10-25T23:49:36.852Z,12.57
2022-10-25T23:52:04.245Z,11.52
2022-10-25T23:54:31.578Z,12.35
2022-10-25T23:56:58.795Z,12.27
2022-10-25T23:59:38.712Z,12.13
